sensor_id;sensor_type;location;lat;lon;timestamp;P1;durP1;ratioP1;P2;durP2;ratioP2
39404;SDS011;25121;51.090;17.038;2023-05-16T00:00:36;23.52;;;20.05;;
39404;SDS011;25121;51.090;17.038;2023-05-16T00:02:07;25.02;;;20.05;;
39404;SDS011;25121;51.090;17.038;2023-05-16T00:03:34;26.17;;;21.10;;
39404;SDS011;25121;51.090;17.038;2023-05-16T00:04:57;25.27;;;21.88;;
39404;SDS011;25121;51.090;17.038;2023-05-16T00:06:21;28.38;;;21.83;;
39404;SDS011;25121;51.090;17.038;2023-05-16T00:07:43;28.88;;;22.17;;
39404;SDS011;25121;51.090;17.038;2023-05-16T00:09:08;27.85;;;22.35;;
39404;SDS011;25121;51.090;17.038;2023-05-16T00:10:29;30.35;;;22.02;;
39404;SDS011;25121;51.090;17.038;2023-05-16T00:11:51;28.08;;;22.17;;
39404;SDS011;25121;51.090;17.038;2023-05-16T00:13:12;31.30;;;22.27;;
39404;SDS011;25121;51.090;17.038;2023-05-16T00:14:35;31.38;;;22.58;;
39404;SDS011;25121;51.090;17.038;2023-05-16T00:15:57;27.80;;;21.85;;
39404;SDS011;25121;51.090;17.038;2023-05-16T00:17:18;28.52;;;21.25;;
39404;SDS011;25121;51.090;17.038;2023-05-16T00:18:41;26.50;;;22.67;;
39404;SDS011;25121;51.090;17.038;2023-05-16T00:20:05;27.17;;;21.85;;
39404;SDS011;25121;51.090;17.038;2023-05-16T00:21:32;25.65;;;21.55;;
39404;SDS011;25121;51.090;17.038;2023-05-16T00:22:54;31.15;;;22.48;;
39404;SDS011;25121;51.090;17.038;2023-05-16T00:24:17;28.70;;;21.23;;
39404;SDS011;25121;51.090;17.038;2023-05-16T00:25:41;27.05;;;21.73;;
39404;SDS011;25121;51.090;17.038;2023-05-16T00:27:04;27.67;;;22.42;;
39404;SDS011;25121;51.090;17.038;2023-05-16T00:29:50;31.60;;;21.58;;
39404;SDS011;25121;51.090;17.038;2023-05-16T00:31:11;27.25;;;22.23;;
39404;SDS011;25121;51.090;17.038;2023-05-16T00:32:34;28.27;;;22.05;;
39404;SDS011;25121;51.090;17.038;2023-05-16T00:34:00;30.48;;;23.60;;
39404;SDS011;25121;51.090;17.038;2023-05-16T00:35:23;27.83;;;23.20;;
39404;SDS011;25121;51.090;17.038;2023-05-16T00:36:46;29.13;;;22.17;;
39404;SDS011;25121;51.090;17.038;2023-05-16T00:38:08;29.48;;;22.95;;
39404;SDS011;25121;51.090;17.038;2023-05-16T00:39:33;29.88;;;23.05;;
39404;SDS011;25121;51.090;17.038;2023-05-16T00:40:55;29.17;;;23.55;;
39404;SDS011;25121;51.090;17.038;2023-05-16T00:42:19;29.73;;;22.48;;
39404;SDS011;25121;51.090;17.038;2023-05-16T00:43:43;31.27;;;23.35;;
39404;SDS011;25121;51.090;17.038;2023-05-16T00:45:07;27.88;;;22.17;;
39404;SDS011;25121;51.090;17.038;2023-05-16T00:46:29;33.08;;;24.67;;
39404;SDS011;25121;51.090;17.038;2023-05-16T00:47:52;28.10;;;23.23;;
39404;SDS011;25121;51.090;17.038;2023-05-16T00:49:15;30.55;;;23.35;;
39404;SDS011;25121;51.090;17.038;2023-05-16T00:50:40;30.35;;;23.45;;
39404;SDS011;25121;51.090;17.038;2023-05-16T00:52:06;28.17;;;23.10;;
39404;SDS011;25121;51.090;17.038;2023-05-16T00:53:28;30.35;;;23.25;;
39404;SDS011;25121;51.090;17.038;2023-05-16T00:54:50;30.95;;;25.00;;
39404;SDS011;25121;51.090;17.038;2023-05-16T00:56:12;31.38;;;24.77;;
39404;SDS011;25121;51.090;17.038;2023-05-16T00:57:36;27.13;;;22.48;;
39404;SDS011;25121;51.090;17.038;2023-05-16T00:59:01;28.58;;;23.83;;
39404;SDS011;25121;51.090;17.038;2023-05-16T01:00:25;34.55;;;24.02;;
39404;SDS011;25121;51.090;17.038;2023-05-16T01:01:46;30.17;;;24.95;;
39404;SDS011;25121;51.090;17.038;2023-05-16T01:03:10;30.30;;;23.85;;
39404;SDS011;25121;51.090;17.038;2023-05-16T01:04:33;30.17;;;23.45;;
39404;SDS011;25121;51.090;17.038;2023-05-16T01:05:59;29.83;;;24.15;;
39404;SDS011;25121;51.090;17.038;2023-05-16T01:07:23;27.27;;;22.70;;
39404;SDS011;25121;51.090;17.038;2023-05-16T01:08:45;27.98;;;23.50;;
39404;SDS011;25121;51.090;17.038;2023-05-16T01:10:07;31.77;;;24.77;;
39404;SDS011;25121;51.090;17.038;2023-05-16T01:11:38;28.20;;;22.15;;
39404;SDS011;25121;51.090;17.038;2023-05-16T01:13:08;26.75;;;22.15;;
39404;SDS011;25121;51.090;17.038;2023-05-16T01:14:45;27.40;;;21.70;;
39404;SDS011;25121;51.090;17.038;2023-05-16T01:16:17;27.02;;;22.63;;
39404;SDS011;25121;51.090;17.038;2023-05-16T01:17:50;26.88;;;22.20;;
39404;SDS011;25121;51.090;17.038;2023-05-16T01:19:25;28.77;;;23.52;;
39404;SDS011;25121;51.090;17.038;2023-05-16T01:21:11;28.00;;;23.13;;
39404;SDS011;25121;51.090;17.038;2023-05-16T01:22:42;27.25;;;23.67;;
39404;SDS011;25121;51.090;17.038;2023-05-16T01:24:13;29.52;;;23.42;;
39404;SDS011;25121;51.090;17.038;2023-05-16T01:25:45;30.17;;;24.38;;
39404;SDS011;25121;51.090;17.038;2023-05-16T01:27:20;28.75;;;23.13;;
39404;SDS011;25121;51.090;17.038;2023-05-16T01:28:45;29.67;;;23.90;;
39404;SDS011;25121;51.090;17.038;2023-05-16T01:30:12;34.38;;;24.38;;
39404;SDS011;25121;51.090;17.038;2023-05-16T01:31:35;36.15;;;25.10;;
39404;SDS011;25121;51.090;17.038;2023-05-16T01:32:58;27.15;;;23.58;;
39404;SDS011;25121;51.090;17.038;2023-05-16T01:34:19;29.45;;;23.98;;
39404;SDS011;25121;51.090;17.038;2023-05-16T01:35:42;32.33;;;24.52;;
39404;SDS011;25121;51.090;17.038;2023-05-16T01:37:15;33.35;;;24.55;;
39404;SDS011;25121;51.090;17.038;2023-05-16T01:38:43;28.20;;;23.27;;
39404;SDS011;25121;51.090;17.038;2023-05-16T01:40:11;31.40;;;24.27;;
39404;SDS011;25121;51.090;17.038;2023-05-16T01:41:42;29.42;;;23.33;;
39404;SDS011;25121;51.090;17.038;2023-05-16T01:43:16;28.80;;;23.52;;
39404;SDS011;25121;51.090;17.038;2023-05-16T01:44:42;29.20;;;23.00;;
39404;SDS011;25121;51.090;17.038;2023-05-16T01:46:08;29.17;;;23.42;;
39404;SDS011;25121;51.090;17.038;2023-05-16T01:47:32;30.08;;;23.17;;
39404;SDS011;25121;51.090;17.038;2023-05-16T01:49:03;29.05;;;23.75;;
39404;SDS011;25121;51.090;17.038;2023-05-16T01:50:39;31.27;;;24.55;;
39404;SDS011;25121;51.090;17.038;2023-05-16T01:52:12;30.88;;;24.10;;
39404;SDS011;25121;51.090;17.038;2023-05-16T01:53:41;32.75;;;25.83;;
39404;SDS011;25121;51.090;17.038;2023-05-16T01:55:06;30.75;;;22.63;;
39404;SDS011;25121;51.090;17.038;2023-05-16T01:56:32;31.10;;;23.83;;
39404;SDS011;25121;51.090;17.038;2023-05-16T01:57:58;28.80;;;22.58;;
39404;SDS011;25121;51.090;17.038;2023-05-16T01:59:24;30.90;;;25.02;;
39404;SDS011;25121;51.090;17.038;2023-05-16T02:00:46;28.35;;;21.38;;
39404;SDS011;25121;51.090;17.038;2023-05-16T02:02:07;27.65;;;23.17;;
39404;SDS011;25121;51.090;17.038;2023-05-16T02:03:30;27.83;;;22.65;;
39404;SDS011;25121;51.090;17.038;2023-05-16T02:04:51;30.17;;;24.25;;
39404;SDS011;25121;51.090;17.038;2023-05-16T02:06:15;31.88;;;23.17;;
39404;SDS011;25121;51.090;17.038;2023-05-16T02:07:36;29.85;;;23.05;;
39404;SDS011;25121;51.090;17.038;2023-05-16T02:09:00;28.60;;;22.45;;
39404;SDS011;25121;51.090;17.038;2023-05-16T02:11:43;26.98;;;21.90;;
39404;SDS011;25121;51.090;17.038;2023-05-16T02:13:08;25.98;;;22.00;;
39404;SDS011;25121;51.090;17.038;2023-05-16T02:14:31;27.23;;;21.35;;
39404;SDS011;25121;51.090;17.038;2023-05-16T02:15:53;26.33;;;22.45;;
39404;SDS011;25121;51.090;17.038;2023-05-16T02:17:24;28.53;;;23.10;;
39404;SDS011;25121;51.090;17.038;2023-05-16T02:18:47;29.75;;;22.67;;
39404;SDS011;25121;51.090;17.038;2023-05-16T02:20:10;28.42;;;22.50;;
39404;SDS011;25121;51.090;17.038;2023-05-16T02:21:32;28.40;;;22.10;;
39404;SDS011;25121;51.090;17.038;2023-05-16T02:24:15;28.33;;;22.85;;
39404;SDS011;25121;51.090;17.038;2023-05-16T02:25:37;28.88;;;22.10;;
39404;SDS011;25121;51.090;17.038;2023-05-16T02:27:02;29.20;;;23.02;;
39404;SDS011;25121;51.090;17.038;2023-05-16T02:28:24;30.17;;;21.27;;
39404;SDS011;25121;51.090;17.038;2023-05-16T02:29:47;30.95;;;22.70;;
39404;SDS011;25121;51.090;17.038;2023-05-16T02:31:09;24.98;;;20.40;;
39404;SDS011;25121;51.090;17.038;2023-05-16T02:32:32;27.60;;;21.50;;
39404;SDS011;25121;51.090;17.038;2023-05-16T02:33:55;25.88;;;21.13;;
39404;SDS011;25121;51.090;17.038;2023-05-16T02:35:18;26.50;;;22.40;;
39404;SDS011;25121;51.090;17.038;2023-05-16T02:38:02;27.17;;;20.52;;
39404;SDS011;25121;51.090;17.038;2023-05-16T02:39:23;29.05;;;20.95;;
39404;SDS011;25121;51.090;17.038;2023-05-16T02:40:45;27.08;;;21.65;;
39404;SDS011;25121;51.090;17.038;2023-05-16T02:42:07;26.85;;;20.15;;
39404;SDS011;25121;51.090;17.038;2023-05-16T02:43:29;25.95;;;19.45;;
39404;SDS011;25121;51.090;17.038;2023-05-16T02:44:51;26.75;;;21.05;;
39404;SDS011;25121;51.090;17.038;2023-05-16T02:46:21;25.40;;;21.02;;
39404;SDS011;25121;51.090;17.038;2023-05-16T02:47:45;27.45;;;20.98;;
39404;SDS011;25121;51.090;17.038;2023-05-16T02:49:07;25.75;;;20.17;;
39404;SDS011;25121;51.090;17.038;2023-05-16T02:50:34;26.10;;;20.33;;
39404;SDS011;25121;51.090;17.038;2023-05-16T02:51:55;22.65;;;18.88;;
39404;SDS011;25121;51.090;17.038;2023-05-16T02:53:17;27.25;;;20.50;;
39404;SDS011;25121;51.090;17.038;2023-05-16T02:54:39;28.52;;;20.63;;
39404;SDS011;25121;51.090;17.038;2023-05-16T02:56:01;31.52;;;20.75;;
39404;SDS011;25121;51.090;17.038;2023-05-16T02:57:26;25.02;;;19.92;;
39404;SDS011;25121;51.090;17.038;2023-05-16T02:58:48;28.30;;;20.90;;
39404;SDS011;25121;51.090;17.038;2023-05-16T03:00:14;27.23;;;20.33;;
39404;SDS011;25121;51.090;17.038;2023-05-16T03:01:39;23.30;;;18.23;;
39404;SDS011;25121;51.090;17.038;2023-05-16T03:03:04;24.20;;;18.67;;
39404;SDS011;25121;51.090;17.038;2023-05-16T03:04:27;27.58;;;19.90;;
39404;SDS011;25121;51.090;17.038;2023-05-16T03:05:48;24.08;;;18.98;;
39404;SDS011;25121;51.090;17.038;2023-05-16T03:07:10;27.60;;;19.83;;
39404;SDS011;25121;51.090;17.038;2023-05-16T03:08:33;23.08;;;18.98;;
39404;SDS011;25121;51.090;17.038;2023-05-16T03:09:57;24.83;;;19.48;;
39404;SDS011;25121;51.090;17.038;2023-05-16T03:12:42;28.98;;;18.98;;
39404;SDS011;25121;51.090;17.038;2023-05-16T03:14:05;24.55;;;18.25;;
39404;SDS011;25121;51.090;17.038;2023-05-16T03:15:30;24.80;;;18.05;;
39404;SDS011;25121;51.090;17.038;2023-05-16T03:16:51;25.45;;;18.58;;
39404;SDS011;25121;51.090;17.038;2023-05-16T03:18:13;27.23;;;20.65;;
39404;SDS011;25121;51.090;17.038;2023-05-16T03:19:35;28.95;;;20.27;;
39404;SDS011;25121;51.090;17.038;2023-05-16T03:21:05;27.65;;;20.25;;
39404;SDS011;25121;51.090;17.038;2023-05-16T03:22:29;28.52;;;18.98;;
39404;SDS011;25121;51.090;17.038;2023-05-16T03:23:51;26.38;;;19.10;;
39404;SDS011;25121;51.090;17.038;2023-05-16T03:25:14;24.98;;;19.17;;
39404;SDS011;25121;51.090;17.038;2023-05-16T03:26:36;29.33;;;18.15;;
39404;SDS011;25121;51.090;17.038;2023-05-16T03:28:01;26.92;;;20.05;;
39404;SDS011;25121;51.090;17.038;2023-05-16T03:29:23;25.23;;;20.33;;
39404;SDS011;25121;51.090;17.038;2023-05-16T03:30:47;28.60;;;19.13;;
39404;SDS011;25121;51.090;17.038;2023-05-16T03:32:09;22.02;;;17.50;;
39404;SDS011;25121;51.090;17.038;2023-05-16T03:33:32;25.65;;;18.48;;
39404;SDS011;25121;51.090;17.038;2023-05-16T03:34:55;23.38;;;19.13;;
39404;SDS011;25121;51.090;17.038;2023-05-16T03:36:17;22.98;;;17.38;;
39404;SDS011;25121;51.090;17.038;2023-05-16T03:37:46;24.15;;;16.38;;
39404;SDS011;25121;51.090;17.038;2023-05-16T03:39:08;19.85;;;17.15;;
39404;SDS011;25121;51.090;17.038;2023-05-16T03:40:29;22.30;;;17.77;;
39404;SDS011;25121;51.090;17.038;2023-05-16T03:41:54;26.17;;;17.80;;
39404;SDS011;25121;51.090;17.038;2023-05-16T03:43:16;23.85;;;18.00;;
39404;SDS011;25121;51.090;17.038;2023-05-16T03:44:42;22.15;;;18.67;;
39404;SDS011;25121;51.090;17.038;2023-05-16T03:46:06;22.67;;;18.52;;
39404;SDS011;25121;51.090;17.038;2023-05-16T03:47:31;24.02;;;17.77;;
39404;SDS011;25121;51.090;17.038;2023-05-16T03:48:53;24.17;;;17.75;;
39404;SDS011;25121;51.090;17.038;2023-05-16T03:50:15;25.55;;;16.95;;
39404;SDS011;25121;51.090;17.038;2023-05-16T03:52:58;22.88;;;15.70;;
39404;SDS011;25121;51.090;17.038;2023-05-16T03:54:19;21.73;;;16.58;;
39404;SDS011;25121;51.090;17.038;2023-05-16T03:55:44;19.73;;;15.82;;
39404;SDS011;25121;51.090;17.038;2023-05-16T03:57:07;24.33;;;17.42;;
39404;SDS011;25121;51.090;17.038;2023-05-16T03:58:29;24.98;;;18.02;;
39404;SDS011;25121;51.090;17.038;2023-05-16T03:59:54;23.50;;;16.83;;
39404;SDS011;25121;51.090;17.038;2023-05-16T04:01:20;24.05;;;16.15;;
39404;SDS011;25121;51.090;17.038;2023-05-16T04:02:43;23.88;;;15.85;;
39404;SDS011;25121;51.090;17.038;2023-05-16T04:04:18;22.40;;;16.25;;
39404;SDS011;25121;51.090;17.038;2023-05-16T04:05:39;27.27;;;16.60;;
39404;SDS011;25121;51.090;17.038;2023-05-16T04:07:01;21.73;;;17.00;;
39404;SDS011;25121;51.090;17.038;2023-05-16T04:08:24;21.65;;;17.02;;
39404;SDS011;25121;51.090;17.038;2023-05-16T04:09:46;24.48;;;16.02;;
39404;SDS011;25121;51.090;17.038;2023-05-16T04:11:07;24.88;;;16.15;;
39404;SDS011;25121;51.090;17.038;2023-05-16T04:12:30;18.83;;;16.33;;
39404;SDS011;25121;51.090;17.038;2023-05-16T04:13:55;29.30;;;17.65;;
39404;SDS011;25121;51.090;17.038;2023-05-16T04:15:22;22.85;;;15.77;;
39404;SDS011;25121;51.090;17.038;2023-05-16T04:16:48;22.17;;;16.17;;
39404;SDS011;25121;51.090;17.038;2023-05-16T04:18:11;18.35;;;14.93;;
39404;SDS011;25121;51.090;17.038;2023-05-16T04:19:34;21.23;;;16.58;;
39404;SDS011;25121;51.090;17.038;2023-05-16T04:20:56;24.38;;;16.20;;
39404;SDS011;25121;51.090;17.038;2023-05-16T04:22:19;21.60;;;16.02;;
39404;SDS011;25121;51.090;17.038;2023-05-16T04:23:41;21.10;;;16.13;;
39404;SDS011;25121;51.090;17.038;2023-05-16T04:25:04;16.77;;;14.98;;
39404;SDS011;25121;51.090;17.038;2023-05-16T04:27:49;22.65;;;16.05;;
39404;SDS011;25121;51.090;17.038;2023-05-16T04:29:10;23.55;;;16.52;;
39404;SDS011;25121;51.090;17.038;2023-05-16T04:30:33;21.63;;;15.68;;
39404;SDS011;25121;51.090;17.038;2023-05-16T04:31:57;25.10;;;15.82;;
39404;SDS011;25121;51.090;17.038;2023-05-16T04:33:23;19.95;;;14.85;;
39404;SDS011;25121;51.090;17.038;2023-05-16T04:34:44;17.83;;;15.13;;
39404;SDS011;25121;51.090;17.038;2023-05-16T04:36:07;19.70;;;14.88;;
39404;SDS011;25121;51.090;17.038;2023-05-16T04:37:29;22.58;;;16.30;;
39404;SDS011;25121;51.090;17.038;2023-05-16T04:38:51;18.80;;;14.95;;
39404;SDS011;25121;51.090;17.038;2023-05-16T04:40:13;20.95;;;14.95;;
39404;SDS011;25121;51.090;17.038;2023-05-16T04:41:39;19.85;;;14.50;;
39404;SDS011;25121;51.090;17.038;2023-05-16T04:43:02;16.90;;;14.57;;
39404;SDS011;25121;51.090;17.038;2023-05-16T04:44:25;17.73;;;13.75;;
39404;SDS011;25121;51.090;17.038;2023-05-16T04:45:48;20.35;;;13.95;;
39404;SDS011;25121;51.090;17.038;2023-05-16T04:47:14;21.15;;;14.60;;
39404;SDS011;25121;51.090;17.038;2023-05-16T04:48:47;17.25;;;12.80;;
39404;SDS011;25121;51.090;17.038;2023-05-16T04:51:32;23.45;;;13.77;;
39404;SDS011;25121;51.090;17.038;2023-05-16T04:52:56;19.75;;;13.38;;
39404;SDS011;25121;51.090;17.038;2023-05-16T04:54:18;15.18;;;13.13;;
39404;SDS011;25121;51.090;17.038;2023-05-16T04:55:46;16.95;;;13.10;;
39404;SDS011;25121;51.090;17.038;2023-05-16T04:57:11;21.60;;;12.43;;
39404;SDS011;25121;51.090;17.038;2023-05-16T04:58:40;14.88;;;13.13;;
39404;SDS011;25121;51.090;17.038;2023-05-16T05:00:03;17.52;;;13.68;;
39404;SDS011;25121;51.090;17.038;2023-05-16T05:01:28;14.27;;;12.52;;
39404;SDS011;25121;51.090;17.038;2023-05-16T05:02:54;16.27;;;13.35;;
39404;SDS011;25121;51.090;17.038;2023-05-16T05:04:21;18.90;;;12.43;;
39404;SDS011;25121;51.090;17.038;2023-05-16T05:05:44;14.50;;;12.15;;
39404;SDS011;25121;51.090;17.038;2023-05-16T05:07:08;17.45;;;12.95;;
39404;SDS011;25121;51.090;17.038;2023-05-16T05:08:30;17.70;;;12.57;;
39404;SDS011;25121;51.090;17.038;2023-05-16T05:09:52;17.52;;;12.13;;
39404;SDS011;25121;51.090;17.038;2023-05-16T05:11:15;18.48;;;12.18;;
39404;SDS011;25121;51.090;17.038;2023-05-16T05:12:41;15.30;;;12.57;;
39404;SDS011;25121;51.090;17.038;2023-05-16T05:14:04;17.75;;;12.00;;
39404;SDS011;25121;51.090;17.038;2023-05-16T05:15:46;17.52;;;11.48;;
39404;SDS011;25121;51.090;17.038;2023-05-16T05:17:13;15.35;;;11.63;;
39404;SDS011;25121;51.090;17.038;2023-05-16T05:18:39;17.15;;;11.20;;
39404;SDS011;25121;51.090;17.038;2023-05-16T05:20:02;13.90;;;11.85;;
39404;SDS011;25121;51.090;17.038;2023-05-16T05:21:33;13.45;;;12.07;;
39404;SDS011;25121;51.090;17.038;2023-05-16T05:22:55;14.25;;;10.75;;
39404;SDS011;25121;51.090;17.038;2023-05-16T05:24:18;13.60;;;11.13;;
39404;SDS011;25121;51.090;17.038;2023-05-16T05:25:40;14.60;;;10.93;;
39404;SDS011;25121;51.090;17.038;2023-05-16T05:27:01;22.95;;;11.98;;
39404;SDS011;25121;51.090;17.038;2023-05-16T05:28:26;13.65;;;10.98;;
39404;SDS011;25121;51.090;17.038;2023-05-16T05:29:51;14.55;;;11.02;;
39404;SDS011;25121;51.090;17.038;2023-05-16T05:31:16;13.57;;;11.10;;
39404;SDS011;25121;51.090;17.038;2023-05-16T05:32:41;13.77;;;10.18;;
39404;SDS011;25121;51.090;17.038;2023-05-16T05:34:04;15.65;;;10.88;;
39404;SDS011;25121;51.090;17.038;2023-05-16T05:35:27;17.75;;;10.15;;
39404;SDS011;25121;51.090;17.038;2023-05-16T05:36:49;17.60;;;11.13;;
39404;SDS011;25121;51.090;17.038;2023-05-16T05:38:11;14.57;;;10.57;;
39404;SDS011;25121;51.090;17.038;2023-05-16T05:39:34;12.32;;;9.82;;
39404;SDS011;25121;51.090;17.038;2023-05-16T05:40:56;13.25;;;10.07;;
39404;SDS011;25121;51.090;17.038;2023-05-16T05:42:18;13.50;;;10.52;;
39404;SDS011;25121;51.090;17.038;2023-05-16T05:43:39;17.42;;;9.98;;
39404;SDS011;25121;51.090;17.038;2023-05-16T05:45:03;15.50;;;10.73;;
39404;SDS011;25121;51.090;17.038;2023-05-16T05:46:31;13.70;;;9.98;;
39404;SDS011;25121;51.090;17.038;2023-05-16T05:47:54;13.30;;;10.88;;
39404;SDS011;25121;51.090;17.038;2023-05-16T05:49:18;11.30;;;9.13;;
39404;SDS011;25121;51.090;17.038;2023-05-16T05:50:39;13.38;;;9.30;;
39404;SDS011;25121;51.090;17.038;2023-05-16T05:52:04;14.00;;;9.85;;
39404;SDS011;25121;51.090;17.038;2023-05-16T05:53:26;12.60;;;9.32;;
39404;SDS011;25121;51.090;17.038;2023-05-16T05:54:51;16.08;;;9.50;;
39404;SDS011;25121;51.090;17.038;2023-05-16T05:56:14;15.40;;;10.65;;
39404;SDS011;25121;51.090;17.038;2023-05-16T05:57:37;11.80;;;10.27;;
39404;SDS011;25121;51.090;17.038;2023-05-16T05:59:03;16.70;;;9.65;;
39404;SDS011;25121;51.090;17.038;2023-05-16T06:00:26;10.35;;;9.25;;
39404;SDS011;25121;51.090;17.038;2023-05-16T06:01:48;13.75;;;9.77;;
39404;SDS011;25121;51.090;17.038;2023-05-16T06:03:12;14.38;;;10.68;;
39404;SDS011;25121;51.090;17.038;2023-05-16T06:04:42;16.30;;;10.32;;
39404;SDS011;25121;51.090;17.038;2023-05-16T06:06:09;11.00;;;9.70;;
39404;SDS011;25121;51.090;17.038;2023-05-16T06:07:31;12.48;;;9.57;;
39404;SDS011;25121;51.090;17.038;2023-05-16T06:11:43;11.00;;;9.25;;
39404;SDS011;25121;51.090;17.038;2023-05-16T06:13:05;18.05;;;10.18;;
39404;SDS011;25121;51.090;17.038;2023-05-16T06:14:29;13.55;;;9.50;;
39404;SDS011;25121;51.090;17.038;2023-05-16T06:15:51;14.10;;;10.02;;
39404;SDS011;25121;51.090;17.038;2023-05-16T06:17:17;12.40;;;10.20;;
39404;SDS011;25121;51.090;17.038;2023-05-16T06:18:42;16.50;;;10.15;;
39404;SDS011;25121;51.090;17.038;2023-05-16T06:20:11;15.98;;;9.82;;
39404;SDS011;25121;51.090;17.038;2023-05-16T06:21:37;14.38;;;9.60;;
39404;SDS011;25121;51.090;17.038;2023-05-16T06:22:59;11.32;;;9.55;;
39404;SDS011;25121;51.090;17.038;2023-05-16T06:24:21;13.52;;;9.23;;
39404;SDS011;25121;51.090;17.038;2023-05-16T06:25:47;19.73;;;10.60;;
39404;SDS011;25121;51.090;17.038;2023-05-16T06:27:12;16.58;;;10.55;;
39404;SDS011;25121;51.090;17.038;2023-05-16T06:28:37;17.55;;;10.02;;
39404;SDS011;25121;51.090;17.038;2023-05-16T06:30:00;11.30;;;10.02;;
39404;SDS011;25121;51.090;17.038;2023-05-16T06:31:22;14.80;;;9.63;;
39404;SDS011;25121;51.090;17.038;2023-05-16T06:32:44;13.65;;;10.00;;
39404;SDS011;25121;51.090;17.038;2023-05-16T06:34:09;17.95;;;9.48;;
39404;SDS011;25121;51.090;17.038;2023-05-16T06:35:32;13.38;;;9.50;;
39404;SDS011;25121;51.090;17.038;2023-05-16T06:36:58;18.55;;;8.40;;
39404;SDS011;25121;51.090;17.038;2023-05-16T06:38:27;13.45;;;8.95;;
39404;SDS011;25121;51.090;17.038;2023-05-16T06:39:55;10.48;;;9.15;;
39404;SDS011;25121;51.090;17.038;2023-05-16T06:41:21;12.82;;;8.63;;
39404;SDS011;25121;51.090;17.038;2023-05-16T06:42:46;11.70;;;8.77;;
39404;SDS011;25121;51.090;17.038;2023-05-16T06:44:09;14.38;;;8.55;;
39404;SDS011;25121;51.090;17.038;2023-05-16T06:45:36;14.93;;;8.75;;
39404;SDS011;25121;51.090;17.038;2023-05-16T06:47:03;12.18;;;8.52;;
39404;SDS011;25121;51.090;17.038;2023-05-16T06:48:26;15.68;;;9.07;;
39404;SDS011;25121;51.090;17.038;2023-05-16T06:49:51;13.00;;;8.90;;
39404;SDS011;25121;51.090;17.038;2023-05-16T06:51:17;9.65;;;8.65;;
39404;SDS011;25121;51.090;17.038;2023-05-16T06:52:39;17.05;;;8.57;;
39404;SDS011;25121;51.090;17.038;2023-05-16T06:55:24;14.60;;;9.25;;
39404;SDS011;25121;51.090;17.038;2023-05-16T06:56:46;15.68;;;9.05;;
39404;SDS011;25121;51.090;17.038;2023-05-16T06:58:10;11.23;;;9.00;;
39404;SDS011;25121;51.090;17.038;2023-05-16T06:59:32;14.02;;;8.68;;
39404;SDS011;25121;51.090;17.038;2023-05-16T07:00:55;12.07;;;8.35;;
39404;SDS011;25121;51.090;17.038;2023-05-16T07:02:17;16.08;;;8.50;;
39404;SDS011;25121;51.090;17.038;2023-05-16T07:03:46;14.25;;;8.55;;
39404;SDS011;25121;51.090;17.038;2023-05-16T07:05:13;12.68;;;7.60;;
39404;SDS011;25121;51.090;17.038;2023-05-16T07:06:36;15.50;;;9.10;;
39404;SDS011;25121;51.090;17.038;2023-05-16T07:08:04;11.35;;;8.85;;
39404;SDS011;25121;51.090;17.038;2023-05-16T07:09:50;12.07;;;8.52;;
39404;SDS011;25121;51.090;17.038;2023-05-16T07:11:16;8.27;;;7.15;;
39404;SDS011;25121;51.090;17.038;2023-05-16T07:12:40;11.75;;;7.80;;
39404;SDS011;25121;51.090;17.038;2023-05-16T07:14:04;10.27;;;8.13;;
39404;SDS011;25121;51.090;17.038;2023-05-16T07:18:37;13.03;;;7.53;;
39404;SDS011;25121;51.090;17.038;2023-05-16T07:20:00;19.17;;;8.40;;
39404;SDS011;25121;51.090;17.038;2023-05-16T07:21:24;10.82;;;7.55;;
39404;SDS011;25121;51.090;17.038;2023-05-16T07:22:48;11.50;;;7.95;;
39404;SDS011;25121;51.090;17.038;2023-05-16T07:24:11;13.27;;;7.20;;
39404;SDS011;25121;51.090;17.038;2023-05-16T07:25:34;12.38;;;7.30;;
39404;SDS011;25121;51.090;17.038;2023-05-16T07:26:59;9.18;;;7.35;;
39404;SDS011;25121;51.090;17.038;2023-05-16T07:28:23;11.20;;;7.38;;
39404;SDS011;25121;51.090;17.038;2023-05-16T07:29:45;8.32;;;7.50;;
39404;SDS011;25121;51.090;17.038;2023-05-16T07:31:09;9.77;;;7.78;;
39404;SDS011;25121;51.090;17.038;2023-05-16T07:32:37;12.25;;;7.65;;
39404;SDS011;25121;51.090;17.038;2023-05-16T07:34:56;12.13;;;7.32;;
39404;SDS011;25121;51.090;17.038;2023-05-16T07:36:22;9.50;;;6.95;;
39404;SDS011;25121;51.090;17.038;2023-05-16T07:37:49;8.25;;;7.30;;
39404;SDS011;25121;51.090;17.038;2023-05-16T07:41:47;8.65;;;6.70;;
39404;SDS011;25121;51.090;17.038;2023-05-16T07:43:10;14.15;;;7.40;;
39404;SDS011;25121;51.090;17.038;2023-05-16T07:44:34;11.32;;;7.30;;
39404;SDS011;25121;51.090;17.038;2023-05-16T07:46:02;10.88;;;7.05;;
39404;SDS011;25121;51.090;17.038;2023-05-16T07:47:29;12.50;;;7.13;;
39404;SDS011;25121;51.090;17.038;2023-05-16T07:48:55;9.80;;;6.65;;
39404;SDS011;25121;51.090;17.038;2023-05-16T07:50:17;11.20;;;7.10;;
39404;SDS011;25121;51.090;17.038;2023-05-16T07:51:42;9.45;;;6.72;;
39404;SDS011;25121;51.090;17.038;2023-05-16T07:53:08;9.38;;;6.57;;
39404;SDS011;25121;51.090;17.038;2023-05-16T07:54:33;8.18;;;7.38;;
39404;SDS011;25121;51.090;17.038;2023-05-16T07:55:57;11.00;;;7.60;;
39404;SDS011;25121;51.090;17.038;2023-05-16T07:57:21;10.13;;;6.63;;
39404;SDS011;25121;51.090;17.038;2023-05-16T07:58:47;9.15;;;7.35;;
39404;SDS011;25121;51.090;17.038;2023-05-16T08:00:10;9.85;;;7.70;;
39404;SDS011;25121;51.090;17.038;2023-05-16T08:01:37;10.52;;;7.50;;
39404;SDS011;25121;51.090;17.038;2023-05-16T08:03:02;10.48;;;7.38;;
39404;SDS011;25121;51.090;17.038;2023-05-16T08:04:25;11.07;;;7.28;;
39404;SDS011;25121;51.090;17.038;2023-05-16T08:05:52;10.77;;;7.70;;
39404;SDS011;25121;51.090;17.038;2023-05-16T08:07:19;14.23;;;7.95;;
39404;SDS011;25121;51.090;17.038;2023-05-16T08:08:53;13.23;;;7.97;;
39404;SDS011;25121;51.090;17.038;2023-05-16T08:10:15;12.60;;;8.35;;
39404;SDS011;25121;51.090;17.038;2023-05-16T08:11:39;9.90;;;8.02;;
39404;SDS011;25121;51.090;17.038;2023-05-16T08:13:07;8.30;;;7.55;;
39404;SDS011;25121;51.090;17.038;2023-05-16T08:15:17;10.15;;;8.07;;
39404;SDS011;25121;51.090;17.038;2023-05-16T08:17:45;11.57;;;8.60;;
39404;SDS011;25121;51.090;17.038;2023-05-16T08:19:08;10.70;;;7.78;;
39404;SDS011;25121;51.090;17.038;2023-05-16T08:23:13;13.45;;;8.02;;
39404;SDS011;25121;51.090;17.038;2023-05-16T08:24:42;11.30;;;8.25;;
39404;SDS011;25121;51.090;17.038;2023-05-16T08:26:13;9.05;;;7.43;;
39404;SDS011;25121;51.090;17.038;2023-05-16T09:05:25;7.32;;;5.97;;
39404;SDS011;25121;51.090;17.038;2023-05-16T09:14:07;7.53;;;6.13;;
39404;SDS011;25121;51.090;17.038;2023-05-16T09:19:21;9.00;;;6.10;;
39404;SDS011;25121;51.090;17.038;2023-05-16T09:20:45;6.65;;;5.85;;
39404;SDS011;25121;51.090;17.038;2023-05-16T09:25:22;7.53;;;6.07;;
39404;SDS011;25121;51.090;17.038;2023-05-16T09:27:06;10.40;;;6.28;;
39404;SDS011;25121;51.090;17.038;2023-05-16T09:28:41;9.40;;;5.68;;